createdAt,value
2018-03-28T00:01:36.704Z,87.10
2018-03-28T00:04:05.115Z,86.60
2018-03-28T00:06:32.886Z,86.60
2018-03-28T00:09:00.788Z,86.80
2018-03-28T00:11:28.776Z,87.10
2018-03-28T00:13:57.396Z,86.80
2018-03-28T00:18:58.264Z,87.30
2018-03-28T00:21:25.944Z,87.10
2018-03-28T00:23:53.691Z,87.10
2018-03-28T00:26:21.544Z,87.50
2018-03-28T00:28:49.482Z,87.80
2018-03-28T00:31:17.386Z,87.90
2018-03-28T00:33:45.027Z,87.80
2018-03-28T00:36:12.762Z,87.60
2018-03-28T00:38:40.510Z,87.70
2018-03-28T00:41:08.990Z,87.30
2018-03-28T00:43:36.762Z,87.20
2018-03-28T00:46:04.601Z,87.50
2018-03-28T00:48:32.446Z,87.50
2018-03-28T00:51:12.059Z,88.10
2018-03-28T00:53:39.902Z,88.30
2018-03-28T00:56:08.364Z,88.20
2018-03-28T00:58:35.924Z,88.10
2018-03-28T01:01:03.704Z,87.90
2018-03-28T01:03:32.180Z,87.20
2018-03-28T01:06:00.776Z,87.30
2018-03-28T01:08:28.726Z,87.30
2018-03-28T01:10:56.556Z,87.90
2018-03-28T01:13:24.258Z,88.20
2018-03-28T01:15:52.844Z,86.90
2018-03-28T01:18:21.434Z,87.00
2018-03-28T01:20:49.216Z,87.00
2018-03-28T01:23:17.078Z,87.50
2018-03-28T01:25:44.906Z,87.70
2018-03-28T01:28:13.089Z,87.70
2018-03-28T01:30:40.761Z,87.70
2018-03-28T01:33:08.498Z,87.50
2018-03-28T01:35:36.196Z,87.50
2018-03-28T01:38:04.017Z,87.70
2018-03-28T01:40:31.675Z,87.20
2018-03-28T01:42:59.420Z,87.10
2018-03-28T01:45:27.074Z,87.20
2018-03-28T01:47:54.795Z,87.70
2018-03-28T01:50:22.424Z,87.90
2018-03-28T01:52:50.109Z,87.90
2018-03-28T01:55:17.739Z,88.00
2018-03-28T01:57:45.454Z,88.10
2018-03-28T02:00:13.022Z,88.00
2018-03-28T02:02:40.802Z,87.60
2018-03-28T02:05:09.338Z,88.50
2018-03-28T02:07:36.975Z,87.80
2018-03-28T02:10:04.580Z,88.10
2018-03-28T02:12:32.235Z,88.30
2018-03-28T02:14:59.868Z,89.00
2018-03-28T02:17:27.651Z,88.60
2018-03-28T02:19:55.579Z,88.40
2018-03-28T02:22:23.258Z,88.60
2018-03-28T02:24:50.935Z,88.10
2018-03-28T02:27:18.623Z,88.00
2018-03-28T02:29:46.244Z,88.30
2018-03-28T02:32:13.804Z,87.20
2018-03-28T02:34:42.176Z,87.70
2018-03-28T02:37:09.838Z,87.00
2018-03-28T02:39:37.582Z,87.00
2018-03-28T02:42:05.191Z,87.40
2018-03-28T02:44:32.900Z,87.10
2018-03-28T02:47:01.311Z,87.20
2018-03-28T02:49:28.957Z,87.20
2018-03-28T02:51:56.592Z,87.60
2018-03-28T02:54:24.360Z,87.90
2018-03-28T02:56:52.066Z,87.90
2018-03-28T02:59:19.646Z,87.80
2018-03-28T03:01:47.367Z,87.70
2018-03-28T03:04:15.044Z,87.90
2018-03-28T03:06:42.729Z,88.10
2018-03-28T03:09:10.438Z,88.10
2018-03-28T03:11:38.109Z,88.10
2018-03-28T03:14:06.541Z,88.50
2018-03-28T03:16:34.171Z,88.50
2018-03-28T03:19:01.849Z,88.70
2018-03-28T03:21:29.619Z,88.50
2018-03-28T03:23:57.236Z,88.50
2018-03-28T03:26:24.942Z,88.50
2018-03-28T03:28:52.577Z,88.50
2018-03-28T03:31:20.342Z,88.50
2018-03-28T03:33:48.972Z,88.00
2018-03-28T03:36:16.694Z,87.90
2018-03-28T03:38:44.346Z,88.00
2018-03-28T03:41:12.014Z,88.30
2018-03-28T03:43:39.662Z,88.50
2018-03-28T03:46:07.329Z,88.40
2018-03-28T03:48:35.685Z,88.00
2018-03-28T03:51:03.298Z,87.70
2018-03-28T03:53:30.919Z,87.50
2018-03-28T03:55:58.583Z,87.40
2018-03-28T03:58:26.247Z,87.70
2018-03-28T04:00:54.728Z,87.50
2018-03-28T04:03:22.452Z,87.30
2018-03-28T04:05:50.081Z,87.50
2018-03-28T04:08:17.799Z,87.70
2018-03-28T04:10:45.378Z,87.50
2018-03-28T04:13:13.136Z,87.70
2018-03-28T04:15:40.735Z,87.50
2018-03-28T04:18:08.426Z,87.60
2018-03-28T04:20:36.169Z,87.40
2018-03-28T04:23:03.991Z,87.30
2018-03-28T04:25:31.647Z,87.50
2018-03-28T04:27:59.403Z,87.30
2018-03-28T04:30:27.117Z,87.50
2018-03-28T04:32:54.820Z,87.50
2018-03-28T04:35:22.489Z,87.40
2018-03-28T04:37:50.312Z,87.50
2018-03-28T04:40:17.994Z,87.50
2018-03-28T04:42:45.905Z,87.70
2018-03-28T04:45:13.831Z,87.90
2018-03-28T04:47:41.658Z,88.40
2018-03-28T04:50:10.569Z,88.20
2018-03-28T04:52:38.389Z,87.50
2018-03-28T04:55:06.146Z,87.20
2018-03-28T04:57:33.914Z,87.20
2018-03-28T05:00:02.776Z,87.70
2018-03-28T05:02:30.488Z,87.90
2018-03-28T05:04:58.479Z,88.40
2018-03-28T05:07:26.237Z,88.70
2018-03-28T05:09:54.097Z,88.60
2018-03-28T05:12:21.784Z,88.80
2018-03-28T05:14:49.573Z,88.90
2018-03-28T05:17:17.611Z,88.50
2018-03-28T05:19:45.610Z,88.50
2018-03-28T05:22:13.646Z,88.70
2018-03-28T05:24:41.603Z,88.80
2018-03-28T05:27:09.804Z,89.10
2018-03-28T05:29:37.617Z,89.20
2018-03-28T05:32:05.993Z,89.30
2018-03-28T05:34:34.167Z,89.20
2018-03-28T05:37:01.949Z,89.40
2018-03-28T05:39:31.431Z,89.40
2018-03-28T05:41:59.381Z,89.30
2018-03-28T05:44:28.569Z,89.40
2018-03-28T05:46:56.429Z,89.40
2018-03-28T05:49:25.417Z,89.40
2018-03-28T05:51:53.495Z,89.20
2018-03-28T05:54:21.444Z,89.40
2018-03-28T05:56:49.447Z,89.20
2018-03-28T05:59:17.323Z,89.20
2018-03-28T06:01:45.344Z,89.00
2018-03-28T06:04:13.200Z,89.10
2018-03-28T06:06:41.941Z,88.90
2018-03-28T06:09:09.878Z,88.90
2018-03-28T06:11:37.876Z,88.80
2018-03-28T06:14:05.812Z,88.90
2018-03-28T06:16:34.112Z,89.10
2018-03-28T06:19:01.954Z,89.10
2018-03-28T06:21:30.031Z,89.20
2018-03-28T06:23:57.940Z,89.90
2018-03-28T06:26:25.939Z,89.30
2018-03-28T06:28:53.977Z,89.20
2018-03-28T06:31:22.745Z,88.80
2018-03-28T06:33:50.652Z,88.30
2018-03-28T06:36:18.619Z,88.00
2018-03-28T06:38:46.473Z,86.90
2018-03-28T06:41:15.142Z,86.60
2018-03-28T06:43:43.518Z,86.50
2018-03-28T06:46:13.482Z,86.40
2018-03-28T06:48:42.761Z,85.90
2018-03-28T06:51:11.989Z,85.80
2018-03-28T06:53:42.014Z,85.70
2018-03-28T06:56:10.043Z,85.90
2018-03-28T06:58:42.023Z,85.60
2018-03-28T07:01:12.086Z,84.90
2018-03-28T07:03:41.843Z,85.30
2018-03-28T07:06:09.863Z,85.10
2018-03-28T07:08:38.691Z,84.90
2018-03-28T07:11:12.015Z,84.50
2018-03-28T07:13:40.782Z,84.60
2018-03-28T07:16:08.935Z,84.60
2018-03-28T07:18:36.997Z,84.80
2018-03-28T07:21:06.297Z,84.80
2018-03-28T07:23:40.371Z,84.50
2018-03-28T07:26:08.655Z,84.60
2018-03-28T07:28:42.544Z,84.60
2018-03-28T07:31:14.507Z,84.80
2018-03-28T07:33:44.446Z,85.50
2018-03-28T07:36:13.711Z,84.80
2018-03-28T07:38:41.843Z,84.90
2018-03-28T07:41:09.726Z,84.60
2018-03-28T07:43:38.611Z,84.20
2018-03-28T07:46:06.591Z,84.10
2018-03-28T07:48:34.591Z,83.70
2018-03-28T07:51:03.168Z,82.30
2018-03-28T07:53:31.443Z,82.30
2018-03-28T07:56:00.441Z,82.20
2018-03-28T07:58:29.912Z,81.50
2018-03-28T08:00:57.643Z,81.40
2018-03-28T08:03:25.598Z,80.80
2018-03-28T08:05:53.482Z,81.10
2018-03-28T08:08:22.178Z,81.10
2018-03-28T08:10:51.433Z,80.80
2018-03-28T08:13:19.553Z,80.80
2018-03-28T08:15:47.366Z,81.20
2018-03-28T08:18:15.013Z,80.50
2018-03-28T08:20:43.249Z,80.60
2018-03-28T08:23:11.646Z,78.70
2018-03-28T08:25:39.954Z,78.90
2018-03-28T08:28:07.904Z,77.50
2018-03-28T08:30:39.707Z,76.40
2018-03-28T08:33:07.475Z,78.40
2018-03-28T08:35:36.115Z,76.60
2018-03-28T08:38:03.963Z,76.10
2018-03-28T08:40:33.203Z,74.80
2018-03-28T08:43:01.037Z,75.10
2018-03-28T08:45:29.307Z,73.90
2018-03-28T08:47:57.986Z,73.20
2018-03-28T08:50:25.727Z,71.60
2018-03-28T08:52:53.707Z,72.10
2018-03-28T08:55:21.549Z,71.50
2018-03-28T08:57:49.519Z,71.60
2018-03-28T09:00:25.666Z,70.90
2018-03-28T09:02:53.705Z,70.70
2018-03-28T09:05:21.860Z,70.60
2018-03-28T09:07:49.872Z,70.00
2018-03-28T09:10:18.615Z,69.30
2018-03-28T09:12:46.663Z,69.20
2018-03-28T09:15:14.593Z,69.40
2018-03-28T09:17:42.736Z,70.10
2018-03-28T09:20:10.725Z,71.40
2018-03-28T09:22:38.635Z,71.00
2018-03-28T09:25:06.637Z,69.70
2018-03-28T09:27:34.615Z,68.10
2018-03-28T09:30:02.595Z,67.90
2018-03-28T09:32:30.667Z,68.80
2018-03-28T09:34:58.532Z,68.50
2018-03-28T09:37:26.558Z,69.00
2018-03-28T09:39:54.277Z,68.10
2018-03-28T09:42:22.396Z,66.80
2018-03-28T09:44:50.503Z,67.70
2018-03-28T09:47:18.531Z,66.40
2018-03-28T09:49:49.097Z,65.90
2018-03-28T09:52:17.165Z,68.00
2018-03-28T09:54:45.167Z,68.00
2018-03-28T09:57:13.050Z,65.90
2018-03-28T09:59:40.977Z,64.30
2018-03-28T10:02:10.691Z,63.60
2018-03-28T10:04:44.055Z,63.60
2018-03-28T10:07:11.952Z,64.40
2018-03-28T10:09:39.788Z,63.70
2018-03-28T10:12:07.706Z,63.60
2018-03-28T10:14:35.464Z,62.40
2018-03-28T10:17:03.304Z,60.70
2018-03-28T10:19:37.380Z,61.40
2018-03-28T10:22:05.629Z,61.00
2018-03-28T10:24:33.714Z,61.20
2018-03-28T10:27:01.637Z,62.80
2018-03-28T10:29:30.773Z,62.30
2018-03-28T10:31:59.102Z,63.40
2018-03-28T10:34:28.939Z,60.40
2018-03-28T10:36:56.943Z,60.20
2018-03-28T10:39:26.172Z,62.30
2018-03-28T10:41:56.887Z,62.40
2018-03-28T10:44:24.823Z,61.60
2018-03-28T10:46:53.665Z,61.60
2018-03-28T10:49:21.693Z,59.90
2018-03-28T10:51:49.626Z,57.90
2018-03-28T10:54:18.403Z,57.80
2018-03-28T10:56:47.223Z,58.50
2018-03-28T10:59:15.431Z,58.40
2018-03-28T11:01:43.339Z,57.70
2018-03-28T11:04:11.247Z,56.70
2018-03-28T11:06:39.156Z,56.20
2018-03-28T11:09:07.082Z,53.70
2018-03-28T11:11:35.143Z,54.90
2018-03-28T11:14:03.133Z,53.90
2018-03-28T11:16:32.485Z,55.00
2018-03-28T11:19:00.438Z,54.90
2018-03-28T11:21:28.737Z,53.30
2018-03-28T11:23:56.689Z,53.10
2018-03-28T11:26:24.793Z,52.90
2018-03-28T11:28:52.808Z,53.30
2018-03-28T11:31:20.872Z,53.10
2018-03-28T11:33:49.531Z,52.40
2018-03-28T11:36:18.274Z,51.80
2018-03-28T11:38:47.149Z,51.10
2018-03-28T11:41:15.812Z,52.10
2018-03-28T11:43:44.619Z,52.60
2018-03-28T11:46:12.530Z,52.50
2018-03-28T11:48:40.560Z,52.20
2018-03-28T11:51:08.561Z,51.80
2018-03-28T11:53:36.643Z,52.90
2018-03-28T11:56:04.559Z,51.60
2018-03-28T11:58:32.542Z,52.80
2018-03-28T12:01:01.219Z,50.70
2018-03-28T12:03:29.854Z,51.80
2018-03-28T12:05:57.749Z,51.70
2018-03-28T12:08:25.834Z,52.70
2018-03-28T12:10:53.779Z,52.30
2018-03-28T12:13:21.850Z,49.80
2018-03-28T12:15:49.850Z,49.40
2018-03-28T12:18:17.879Z,48.70
2018-03-28T12:20:45.531Z,48.80
2018-03-28T12:23:13.397Z,48.90
2018-03-28T12:25:41.309Z,49.60
2018-03-28T12:28:09.266Z,50.40
2018-03-28T12:30:37.515Z,49.60
2018-03-28T12:33:05.385Z,50.60
2018-03-28T12:35:33.444Z,51.40
2018-03-28T12:38:01.374Z,52.30
2018-03-28T12:40:29.239Z,53.20
2018-03-28T12:42:57.192Z,53.30
2018-03-28T12:45:25.161Z,54.30
2018-03-28T12:47:53.026Z,55.20
2018-03-28T12:50:20.989Z,56.60
2018-03-28T12:52:48.959Z,58.40
2018-03-28T12:55:16.916Z,59.20
2018-03-28T12:57:44.756Z,61.30
2018-03-28T13:00:12.605Z,63.40
2018-03-28T13:02:40.430Z,64.00
2018-03-28T13:05:10.612Z,62.70
2018-03-28T13:07:38.466Z,63.40
2018-03-28T13:10:06.519Z,64.60
2018-03-28T13:12:34.433Z,65.50
2018-03-28T13:15:03.311Z,65.90
2018-03-28T13:17:31.125Z,66.10
2018-03-28T13:19:59.647Z,66.70
2018-03-28T13:22:27.452Z,66.70
2018-03-28T13:24:55.344Z,66.90
2018-03-28T13:27:23.960Z,67.40
2018-03-28T13:29:51.643Z,67.40
2018-03-28T13:32:19.438Z,68.80
2018-03-28T13:34:48.082Z,69.80
2018-03-28T13:37:15.888Z,69.80
2018-03-28T13:39:44.188Z,70.50
2018-03-28T13:42:12.021Z,69.90
2018-03-28T13:44:39.812Z,70.90
2018-03-28T13:47:07.623Z,70.80
2018-03-28T13:49:35.418Z,72.10
2018-03-28T13:52:04.662Z,73.90
2018-03-28T13:54:33.338Z,74.60
2018-03-28T13:57:02.055Z,74.60
2018-03-28T13:59:30.000Z,74.60
2018-03-28T14:01:57.969Z,75.10
2018-03-28T14:04:25.840Z,74.70
2018-03-28T14:06:53.793Z,74.90
2018-03-28T14:09:21.607Z,75.70
2018-03-28T14:11:49.477Z,75.70
2018-03-28T14:14:18.067Z,77.90
2018-03-28T14:16:45.944Z,77.90
2018-03-28T14:19:15.168Z,79.30
2018-03-28T14:21:44.451Z,81.00
2018-03-28T14:24:12.512Z,80.20
2018-03-28T14:26:44.944Z,81.70
2018-03-28T14:29:16.549Z,81.90
2018-03-28T14:31:44.872Z,81.80
2018-03-28T14:34:12.677Z,81.50
2018-03-28T14:36:40.602Z,82.00
2018-03-28T14:39:08.963Z,81.70
2018-03-28T14:41:38.563Z,81.80
2018-03-28T14:44:06.745Z,81.70
2018-03-28T14:46:35.428Z,81.70
2018-03-28T14:49:03.157Z,82.00
2018-03-28T14:51:39.407Z,82.00
2018-03-28T14:54:07.503Z,81.90
2018-03-28T14:56:36.830Z,81.00
2018-03-28T14:59:05.685Z,81.20
2018-03-28T15:01:35.855Z,81.00
2018-03-28T15:04:03.979Z,80.80
2018-03-28T15:06:31.887Z,81.40
2018-03-28T15:08:59.780Z,81.50
2018-03-28T15:11:27.778Z,81.90
2018-03-28T15:13:55.745Z,82.10
2018-03-28T15:16:24.368Z,81.70
2018-03-28T15:18:52.999Z,81.40
2018-03-28T15:21:20.921Z,80.70
2018-03-28T15:23:50.916Z,81.10
2018-03-28T15:26:20.937Z,81.10
2018-03-28T15:28:49.874Z,81.10
2018-03-28T15:31:19.045Z,81.30
2018-03-28T15:33:46.998Z,80.50
2018-03-28T15:36:14.634Z,81.00
2018-03-28T15:38:42.589Z,79.90
2018-03-28T15:41:11.253Z,80.10
2018-03-28T15:43:39.215Z,80.70
2018-03-28T15:46:07.921Z,80.90
2018-03-28T15:48:36.667Z,80.80
2018-03-28T15:51:07.217Z,79.90
2018-03-28T15:53:36.725Z,80.80
2018-03-28T15:56:04.744Z,81.00
2018-03-28T15:58:32.752Z,81.10
2018-03-28T16:01:01.525Z,80.90
2018-03-28T16:03:30.485Z,80.10
2018-03-28T16:05:58.557Z,80.20
2018-03-28T16:08:26.390Z,79.10
2018-03-28T16:10:54.955Z,78.60
2018-03-28T16:13:23.188Z,78.00
2018-03-28T16:15:55.254Z,77.10
2018-03-28T16:18:25.501Z,76.90
2018-03-28T16:21:03.800Z,77.70
2018-03-28T16:23:31.808Z,77.50
2018-03-28T16:25:59.772Z,76.70
2018-03-28T16:28:28.570Z,76.20
2018-03-28T16:30:56.566Z,76.10
2018-03-28T16:33:24.568Z,76.40
2018-03-28T16:35:52.437Z,76.70
2018-03-28T16:38:23.071Z,77.20
2018-03-28T16:40:51.189Z,77.20
2018-03-28T16:43:20.901Z,77.60
2018-03-28T16:45:48.694Z,77.60
2018-03-28T16:48:17.034Z,78.00
2018-03-28T16:50:45.772Z,79.70
2018-03-28T16:53:13.485Z,79.70
2018-03-28T16:55:41.797Z,80.20
2018-03-28T16:58:09.826Z,80.10
2018-03-28T17:00:37.901Z,80.70
2018-03-28T17:03:06.503Z,82.00
2018-03-28T17:05:34.381Z,81.90
2018-03-28T17:08:03.122Z,82.30
2018-03-28T17:10:30.938Z,82.70
2018-03-28T17:12:58.966Z,82.90
2018-03-28T17:15:27.582Z,83.50
2018-03-28T17:17:55.578Z,83.40
2018-03-28T17:20:23.553Z,83.80
2018-03-28T17:22:53.096Z,83.70
2018-03-28T17:25:21.732Z,84.20
2018-03-28T17:27:49.818Z,84.20
2018-03-28T17:30:17.972Z,84.50
2018-03-28T17:32:46.350Z,84.50
2018-03-28T17:35:14.194Z,84.60
2018-03-28T17:37:43.373Z,85.40
2018-03-28T17:40:12.148Z,85.30
2018-03-28T17:42:40.668Z,85.70
2018-03-28T17:45:08.433Z,85.70
2018-03-28T17:47:36.184Z,85.80
2018-03-28T17:50:04.016Z,86.00
2018-03-28T17:52:31.867Z,86.20
2018-03-28T17:54:59.625Z,86.60
2018-03-28T17:57:27.284Z,86.70
2018-03-28T17:59:54.942Z,87.00
2018-03-28T18:02:22.593Z,87.10
2018-03-28T18:04:50.218Z,87.40
2018-03-28T18:07:17.821Z,87.50
2018-03-28T18:09:45.392Z,87.60
2018-03-28T18:12:13.002Z,87.60
2018-03-28T18:14:40.772Z,87.80
2018-03-28T18:17:08.413Z,87.80
2018-03-28T18:19:36.010Z,87.90
2018-03-28T18:22:04.435Z,88.40
2018-03-28T18:24:32.179Z,88.30
2018-03-28T18:27:00.019Z,88.60
2018-03-28T18:29:28.104Z,88.50
2018-03-28T18:31:55.957Z,88.40
2018-03-28T18:34:23.778Z,88.50
2018-03-28T18:36:51.674Z,88.30
2018-03-28T18:39:19.547Z,88.90
2018-03-28T18:41:47.354Z,88.30
2018-03-28T18:44:15.230Z,88.40
2018-03-28T18:46:43.122Z,89.00
2018-03-28T18:49:12.373Z,88.50
2018-03-28T18:51:40.128Z,88.40
2018-03-28T18:54:07.858Z,88.40
2018-03-28T18:56:36.312Z,88.40
2018-03-28T18:59:04.412Z,88.40
2018-03-28T19:01:32.994Z,88.50
2018-03-28T19:04:01.423Z,88.60
2018-03-28T19:06:29.176Z,88.60
2018-03-28T19:08:56.917Z,88.60
2018-03-28T19:11:26.184Z,88.60
2018-03-28T19:13:54.056Z,88.60
2018-03-28T19:16:21.936Z,88.80
2018-03-28T19:18:50.462Z,89.00
2018-03-28T19:21:18.304Z,89.00
2018-03-28T19:23:45.999Z,89.00
2018-03-28T19:26:13.856Z,89.30
2018-03-28T19:28:41.807Z,89.50
2018-03-28T19:31:09.695Z,89.60
2018-03-28T19:33:38.949Z,89.60
2018-03-28T19:36:06.987Z,89.60
2018-03-28T19:38:35.446Z,89.70
2018-03-28T19:41:03.378Z,89.80
2018-03-28T19:43:31.872Z,89.80
2018-03-28T19:46:00.318Z,89.90
2018-03-28T19:48:28.888Z,90.00
2018-03-28T19:50:58.146Z,89.90
2018-03-28T19:53:26.036Z,90.00
2018-03-28T19:55:53.833Z,90.00
2018-03-28T19:58:21.811Z,89.90
2018-03-28T20:00:49.638Z,89.90
2018-03-28T20:03:17.550Z,89.40
2018-03-28T20:05:45.301Z,89.40
2018-03-28T20:08:14.348Z,90.00
2018-03-28T20:10:42.297Z,90.10
2018-03-28T20:13:10.282Z,90.20
2018-03-28T20:15:38.027Z,90.10
2018-03-28T20:18:06.356Z,90.10
2018-03-28T20:20:34.130Z,90.20
2018-03-28T20:23:02.966Z,90.10
2018-03-28T20:25:30.815Z,90.20
2018-03-28T20:28:03.798Z,90.20
2018-03-28T20:30:32.233Z,90.20
2018-03-28T20:32:59.982Z,90.20
2018-03-28T20:35:29.317Z,90.10
2018-03-28T20:37:57.126Z,90.00
2018-03-28T20:40:25.037Z,90.00
2018-03-28T20:42:52.962Z,90.10
2018-03-28T20:45:20.574Z,90.50
2018-03-28T20:47:48.372Z,90.50
2018-03-28T20:50:16.192Z,90.60
2018-03-28T20:52:44.514Z,90.70
2018-03-28T20:55:13.114Z,90.60
2018-03-28T20:57:47.668Z,90.90
2018-03-28T21:00:16.631Z,90.60
2018-03-28T21:02:44.470Z,90.50
2018-03-28T21:05:13.984Z,90.50
2018-03-28T21:07:45.061Z,90.40
2018-03-28T21:10:14.108Z,90.40
2018-03-28T21:12:45.900Z,90.50
2018-03-28T21:15:13.890Z,90.60
2018-03-28T21:17:42.012Z,90.60
2018-03-28T21:20:09.950Z,90.50
2018-03-28T21:22:38.766Z,90.40
2018-03-28T21:25:07.686Z,90.40
2018-03-28T21:27:35.889Z,90.80
2018-03-28T21:30:04.730Z,90.50
2018-03-28T21:32:32.788Z,90.60
2018-03-28T21:35:00.695Z,90.70
2018-03-28T21:37:29.274Z,90.80
2018-03-28T21:39:57.718Z,90.80
2018-03-28T21:42:25.378Z,90.80
2018-03-28T21:44:53.286Z,90.90
2018-03-28T21:47:20.939Z,91.00
2018-03-28T21:49:56.044Z,91.00
2018-03-28T21:52:23.831Z,91.00
2018-03-28T21:54:51.730Z,91.10
2018-03-28T21:57:19.625Z,91.10
2018-03-28T21:59:48.396Z,91.10
2018-03-28T22:02:16.990Z,91.10
2018-03-28T22:04:44.760Z,91.10
2018-03-28T22:07:13.279Z,91.10
2018-03-28T22:09:41.262Z,91.10
2018-03-28T22:12:09.854Z,91.20
2018-03-28T22:14:37.492Z,91.10
2018-03-28T22:17:05.838Z,91.10
2018-03-28T22:19:33.683Z,91.00
2018-03-28T22:22:01.638Z,91.00
2018-03-28T22:24:30.514Z,91.00
2018-03-28T22:26:58.547Z,91.00
2018-03-28T22:29:26.373Z,91.00
2018-03-28T22:31:54.755Z,91.00
2018-03-28T22:34:24.173Z,91.10
2018-03-28T22:37:02.040Z,91.10
2018-03-28T22:39:35.364Z,91.10
2018-03-28T22:42:03.463Z,91.30
2018-03-28T22:44:43.980Z,91.20
2018-03-28T22:47:12.103Z,91.20
2018-03-28T22:49:39.934Z,91.20
2018-03-28T22:52:08.731Z,91.30
2018-03-28T22:54:37.454Z,91.30
2018-03-28T22:57:07.535Z,91.30
2018-03-28T22:59:35.784Z,91.40
2018-03-28T23:02:03.784Z,91.40
2018-03-28T23:04:32.382Z,91.40
2018-03-28T23:07:00.564Z,91.40
2018-03-28T23:09:30.834Z,91.40
2018-03-28T23:11:59.646Z,91.40
2018-03-28T23:14:27.396Z,91.40
2018-03-28T23:16:56.109Z,91.50
2018-03-28T23:19:24.034Z,91.50
2018-03-28T23:21:53.079Z,91.70
2018-03-28T23:24:22.294Z,91.60
2018-03-28T23:26:50.376Z,91.60
2018-03-28T23:29:19.371Z,91.70
2018-03-28T23:31:47.316Z,91.70
2018-03-28T23:34:15.148Z,91.70
2018-03-28T23:36:43.617Z,91.80
2018-03-28T23:39:15.257Z,91.80
2018-03-28T23:41:42.987Z,91.80
2018-03-28T23:44:11.753Z,92.10
2018-03-28T23:46:39.804Z,91.80
2018-03-28T23:49:11.540Z,91.80
2018-03-28T23:51:41.253Z,91.90
2018-03-28T23:54:09.448Z,91.80
2018-03-28T23:56:37.462Z,91.80
2018-03-28T23:59:05.322Z,91.80
